Time;durP1;ratioP1;P1;durP2;ratioP2;P2;SDS_P1;SDS_P2;PMS_P1;PMS_P2;Temp;Humidity;BMP_temperature;BMP_pressure;BME280_temperature;BME280_humidity;BME280_pressure;Samples;Min_cycle;Max_cycle;Signal;HPM_P1;HPM_P2
2020/12/17 00:01:17;;;;;;;10.50;3.95;;;;;;;;;;2059874;28;20042;-71
2020/12/17 00:02:36;;;;;;;7.50;3.05;;;;;;;;;;2065523;28;20026;-70
2020/12/17 00:03:55;;;;;;;10.07;3.20;;;;;;;;;;2060843;28;21432;-70
2020/12/17 00:05:15;;;;;;;10.38;3.20;;;;;;;;;;2061007;28;20034;-70
2020/12/17 00:06:34;;;;;;;9.25;3.50;;;;;;;;;;2062430;28;20030;-70
2020/12/17 00:07:53;;;;;;;9.52;3.40;;;;;;;;;;2061913;28;20035;-70
2020/12/17 00:09:12;;;;;;;8.07;3.47;;;;;;;;;;2065219;28;20022;-70
2020/12/17 00:10:31;;;;;;;10.02;3.10;;;;;;;;;;2065214;28;20459;-70
2020/12/17 00:11:54;;;;;;;10.25;3.03;;;;;;;;;;2065120;28;20031;-70
2020/12/17 00:13:13;;;;;;;6.70;3.40;;;;;;;;;;2062935;28;20030;-70
2020/12/17 00:14:32;;;;;;;8.15;3.40;;;;;;;;;;2065320;28;20407;-70
2020/12/17 00:15:50;;;;;;;16.55;3.45;;;;;;;;;;2060029;28;20038;-70
2020/12/17 00:17:09;;;;;;;6.70;2.88;;;;;;;;;;2064974;28;20471;-70
2020/12/17 00:18:28;;;;;;;12.07;3.58;;;;;;;;;;2061291;28;20034;-70
2020/12/17 00:19:47;;;;;;;11.25;3.50;;;;;;;;;;2060354;28;20078;-70
2020/12/17 00:21:06;;;;;;;12.20;4.45;;;;;;;;;;2061116;28;20395;-70
2020/12/17 00:22:25;;;;;;;15.05;3.42;;;;;;;;;;2064141;28;20023;-70
2020/12/17 00:23:44;;;;;;;6.78;3.40;;;;;;;;;;2058753;28;20031;-71
2020/12/17 00:25:03;;;;;;;9.02;3.60;;;;;;;;;;2065253;28;20042;-70
2020/12/17 00:26:25;;;;;;;7.82;3.17;;;;;;;;;;2062007;28;20038;-71
2020/12/17 00:27:45;;;;;;;14.20;3.10;;;;;;;;;;2063620;28;20495;-70
2020/12/17 00:29:03;;;;;;;9.52;3.22;;;;;;;;;;2062515;28;20030;-72
2020/12/17 00:30:22;;;;;;;11.48;3.28;;;;;;;;;;2060809;28;20026;-70
2020/12/17 00:31:41;;;;;;;6.68;3.53;;;;;;;;;;2061047;28;20026;-71
2020/12/17 00:33:00;;;;;;;8.95;3.88;;;;;;;;;;2061219;28;20105;-72
2020/12/17 00:34:19;;;;;;;10.15;3.80;;;;;;;;;;2063557;28;20022;-72
2020/12/17 00:35:38;;;;;;;8.38;2.90;;;;;;;;;;2065880;28;20074;-72
2020/12/17 00:36:58;;;;;;;10.75;3.15;;;;;;;;;;2065686;28;20034;-72
2020/12/17 00:38:18;;;;;;;14.52;3.13;;;;;;;;;;2063715;28;20026;-69
2020/12/17 00:39:37;;;;;;;8.93;2.90;;;;;;;;;;2060602;28;20034;-71
2020/12/17 00:40:55;;;;;;;13.23;3.40;;;;;;;;;;2061717;28;20495;-71
2020/12/17 00:42:14;;;;;;;9.18;3.08;;;;;;;;;;2065777;28;20494;-72
2020/12/17 00:43:33;;;;;;;9.50;3.30;;;;;;;;;;2063572;28;20482;-72
2020/12/17 00:44:52;;;;;;;12.85;3.10;;;;;;;;;;2063903;28;20034;-72
2020/12/17 00:46:15;;;;;;;8.05;3.05;;;;;;;;;;2060909;28;21564;-72
2020/12/17 00:47:34;;;;;;;9.77;3.38;;;;;;;;;;2062917;28;20125;-71
2020/12/17 00:48:54;;;;;;;10.70;2.97;;;;;;;;;;2063031;28;20061;-71
2020/12/17 00:50:12;;;;;;;10.52;3.30;;;;;;;;;;2063424;28;20034;-72
2020/12/17 00:51:31;;;;;;;12.25;3.38;;;;;;;;;;2061451;28;20608;-72
2020/12/17 00:52:50;;;;;;;10.75;2.72;;;;;;;;;;2062495;28;20030;-72
2020/12/17 00:54:09;;;;;;;11.80;3.35;;;;;;;;;;2059953;28;20019;-72
2020/12/17 00:55:28;;;;;;;12.77;2.97;;;;;;;;;;2060684;28;20058;-71
2020/12/17 00:56:47;;;;;;;8.88;3.70;;;;;;;;;;2061973;28;20035;-72
2020/12/17 00:58:06;;;;;;;9.80;3.13;;;;;;;;;;2060688;28;20042;-71
2020/12/17 00:59:25;;;;;;;8.70;3.17;;;;;;;;;;2064077;28;20026;-71
2020/12/17 01:00:44;;;;;;;12.52;3.50;;;;;;;;;;2063801;28;20058;-72
2020/12/17 01:02:03;;;;;;;6.32;3.15;;;;;;;;;;2064814;28;20034;-72
2020/12/17 01:03:21;;;;;;;17.08;4.30;;;;;;;;;;2064659;28;20109;-72
2020/12/17 01:04:40;;;;;;;12.35;3.13;;;;;;;;;;2060581;28;20069;-72
2020/12/17 01:05:59;;;;;;;11.88;3.22;;;;;;;;;;2062344;28;20038;-72
2020/12/17 01:07:18;;;;;;;10.25;3.22;;;;;;;;;;2062836;28;20030;-72
2020/12/17 01:08:37;;;;;;;10.40;3.38;;;;;;;;;;2062653;28;20026;-72
2020/12/17 01:09:56;;;;;;;7.07;3.95;;;;;;;;;;2061655;28;20494;-72
2020/12/17 01:11:15;;;;;;;7.78;3.00;;;;;;;;;;2058908;28;21962;-71
2020/12/17 01:12:34;;;;;;;11.98;3.45;;;;;;;;;;2063393;28;20034;-72
2020/12/17 01:13:53;;;;;;;13.23;4.28;;;;;;;;;;2064404;28;20073;-71
2020/12/17 01:15:12;;;;;;;16.95;3.40;;;;;;;;;;2058641;28;20495;-71
2020/12/17 01:16:31;;;;;;;7.57;3.65;;;;;;;;;;2063265;28;20026;-71
2020/12/17 01:17:50;;;;;;;11.23;3.30;;;;;;;;;;2063636;28;20022;-72
2020/12/17 01:19:09;;;;;;;13.57;3.65;;;;;;;;;;2063615;28;20022;-72
2020/12/17 01:20:28;;;;;;;11.32;3.67;;;;;;;;;;2063211;28;20023;-71
2020/12/17 01:21:49;;;;;;;7.15;3.08;;;;;;;;;;2064594;28;20034;-72
2020/12/17 01:23:08;;;;;;;11.52;3.67;;;;;;;;;;2062745;28;20022;-72
2020/12/17 01:24:27;;;;;;;9.80;3.92;;;;;;;;;;2063643;28;20026;-72
2020/12/17 01:25:46;;;;;;;12.50;3.30;;;;;;;;;;2063484;28;20038;-72
2020/12/17 01:27:05;;;;;;;10.20;2.90;;;;;;;;;;2062869;28;20030;-71
2020/12/17 01:28:24;;;;;;;8.88;4.10;;;;;;;;;;2063506;28;20034;-72
2020/12/17 01:29:43;;;;;;;7.65;3.38;;;;;;;;;;2061807;28;20034;-71
2020/12/17 01:31:12;;;;;;;10.90;3.10;;;;;;;;;;2064085;28;20027;-71
2020/12/17 01:32:31;;;;;;;9.05;3.78;;;;;;;;;;2063299;28;20035;-71
2020/12/17 01:33:49;;;;;;;9.55;3.33;;;;;;;;;;2063859;28;20030;-71
2020/12/17 01:35:08;;;;;;;13.30;3.47;;;;;;;;;;2063615;28;20097;-71
2020/12/17 01:36:27;;;;;;;11.07;3.80;;;;;;;;;;2063909;28;20026;-72
2020/12/17 01:37:46;;;;;;;9.70;3.70;;;;;;;;;;2064150;28;20482;-71
2020/12/17 01:39:05;;;;;;;14.90;3.92;;;;;;;;;;2063319;28;20030;-71
2020/12/17 01:40:24;;;;;;;8.35;3.90;;;;;;;;;;2060956;28;20027;-71
2020/12/17 01:41:43;;;;;;;11.68;4.82;;;;;;;;;;2060538;28;20117;-71
2020/12/17 01:43:01;;;;;;;10.15;4.18;;;;;;;;;;2059408;28;20023;-71
2020/12/17 01:44:20;;;;;;;13.73;4.60;;;;;;;;;;2062855;28;20102;-71
2020/12/17 01:45:39;;;;;;;11.27;4.35;;;;;;;;;;2062771;28;20018;-71
2020/12/17 01:46:58;;;;;;;10.63;4.10;;;;;;;;;;2062586;28;20043;-71
2020/12/17 01:48:17;;;;;;;16.13;4.18;;;;;;;;;;2056727;28;20027;-71
2020/12/17 01:49:36;;;;;;;11.18;3.88;;;;;;;;;;2064636;28;20030;-71
2020/12/17 01:50:55;;;;;;;13.93;4.65;;;;;;;;;;2062295;28;20026;-71
2020/12/17 01:52:14;;;;;;;17.85;4.60;;;;;;;;;;2058315;28;20023;-71
2020/12/17 01:53:37;;;;;;;23.88;5.88;;;;;;;;;;2057462;28;20031;-71
2020/12/17 01:54:56;;;;;;;18.73;5.25;;;;;;;;;;2064897;28;20038;-71
2020/12/17 01:56:22;;;;;;;12.52;4.60;;;;;;;;;;2064960;28;20031;-70
2020/12/17 01:57:44;;;;;;;9.73;4.25;;;;;;;;;;2063838;28;20042;-71
2020/12/17 01:59:04;;;;;;;20.75;5.00;;;;;;;;;;2064012;28;20510;-71
2020/12/17 02:00:24;;;;;;;14.65;4.68;;;;;;;;;;2058812;28;20365;-71
2020/12/17 02:01:45;;;;;;;16.17;4.97;;;;;;;;;;2063521;28;20052;-71
2020/12/17 02:03:04;;;;;;;20.33;4.63;;;;;;;;;;2062040;28;20023;-71
2020/12/17 02:04:24;;;;;;;13.63;4.63;;;;;;;;;;2064589;28;20023;-71
2020/12/17 02:05:43;;;;;;;17.10;5.25;;;;;;;;;;2063645;28;20054;-71
2020/12/17 02:07:02;;;;;;;17.30;4.82;;;;;;;;;;2063725;28;20026;-71
2020/12/17 02:08:22;;;;;;;8.65;3.90;;;;;;;;;;2064388;28;20022;-71
2020/12/17 02:09:42;;;;;;;13.93;4.07;;;;;;;;;;2063132;28;20031;-71
2020/12/17 02:11:01;;;;;;;12.88;4.97;;;;;;;;;;2062181;28;20402;-71
2020/12/17 02:12:19;;;;;;;15.27;4.90;;;;;;;;;;2064323;28;20058;-71
2020/12/17 02:13:38;;;;;;;14.57;4.57;;;;;;;;;;2062490;28;20022;-70
2020/12/17 02:14:57;;;;;;;15.55;4.40;;;;;;;;;;2059865;28;20027;-70
2020/12/17 02:16:16;;;;;;;12.30;4.15;;;;;;;;;;2060016;28;20471;-71
2020/12/17 02:17:35;;;;;;;15.90;4.60;;;;;;;;;;2059416;28;20482;-71
2020/12/17 02:18:54;;;;;;;15.63;4.43;;;;;;;;;;2064418;28;20034;-71
2020/12/17 02:20:13;;;;;;;10.93;4.30;;;;;;;;;;2062984;28;20045;-71
2020/12/17 02:21:31;;;;;;;17.83;4.88;;;;;;;;;;2060112;28;20038;-71
2020/12/17 02:22:51;;;;;;;9.50;3.78;;;;;;;;;;2061511;28;20042;-71
2020/12/17 02:24:10;;;;;;;16.98;4.13;;;;;;;;;;2058134;28;20038;-71
2020/12/17 02:25:29;;;;;;;19.13;4.45;;;;;;;;;;2063629;28;20026;-71
2020/12/17 02:26:48;;;;;;;15.75;4.10;;;;;;;;;;2062214;28;20394;-70
2020/12/17 02:28:07;;;;;;;12.18;4.43;;;;;;;;;;2063965;28;20039;-70
2020/12/17 02:29:26;;;;;;;16.83;4.50;;;;;;;;;;2062973;28;20019;-70
2020/12/17 02:30:45;;;;;;;11.65;4.25;;;;;;;;;;2064125;28;20031;-70
2020/12/17 02:32:04;;;;;;;15.68;4.43;;;;;;;;;;2059496;28;20106;-70
2020/12/17 02:33:23;;;;;;;9.45;4.28;;;;;;;;;;2063123;28;20023;-70
2020/12/17 02:34:42;;;;;;;11.27;3.17;;;;;;;;;;2061486;28;20027;-70
2020/12/17 02:36:01;;;;;;;15.00;3.95;;;;;;;;;;2065051;28;20019;-70
2020/12/17 02:37:21;;;;;;;17.45;5.20;;;;;;;;;;2066704;28;20042;-70
2020/12/17 02:38:42;;;;;;;14.68;3.60;;;;;;;;;;2065902;28;20039;-70
2020/12/17 02:40:01;;;;;;;19.45;4.20;;;;;;;;;;2065871;28;20031;-70
2020/12/17 02:41:19;;;;;;;12.90;3.65;;;;;;;;;;2060450;28;20034;-70
2020/12/17 02:42:39;;;;;;;9.15;3.25;;;;;;;;;;2061440;28;20030;-70
2020/12/17 02:43:58;;;;;;;13.85;4.00;;;;;;;;;;2060161;28;20027;-72
2020/12/17 02:45:16;;;;;;;13.55;4.15;;;;;;;;;;2061090;28;20031;-72
2020/12/17 02:46:35;;;;;;;18.05;4.28;;;;;;;;;;2062950;28;20038;-72
2020/12/17 02:47:54;;;;;;;16.58;4.07;;;;;;;;;;2065823;28;20026;-71
2020/12/17 02:49:13;;;;;;;17.85;4.18;;;;;;;;;;2065930;28;20422;-71
2020/12/17 02:50:32;;;;;;;13.18;4.03;;;;;;;;;;2062625;28;20027;-71
2020/12/17 02:51:51;;;;;;;9.65;4.68;;;;;;;;;;2058751;28;20471;-71
2020/12/17 02:53:11;;;;;;;13.27;3.97;;;;;;;;;;2062814;28;20027;-71
2020/12/17 02:54:30;;;;;;;15.25;4.32;;;;;;;;;;2065441;28;20030;-71
2020/12/17 02:55:49;;;;;;;16.30;4.30;;;;;;;;;;2061947;28;20034;-71
2020/12/17 02:57:07;;;;;;;8.27;4.10;;;;;;;;;;2066123;28;20026;-71
2020/12/17 02:58:26;;;;;;;14.48;4.25;;;;;;;;;;2065446;28;20026;-71
2020/12/17 02:59:45;;;;;;;18.45;3.70;;;;;;;;;;2056548;28;20184;-71
2020/12/17 03:01:04;;;;;;;9.00;4.03;;;;;;;;;;2060337;28;20039;-71
2020/12/17 03:02:22;;;;;;;11.65;4.05;;;;;;;;;;2061836;28;21254;-71
2020/12/17 03:03:41;;;;;;;13.70;3.83;;;;;;;;;;2061618;28;20022;-71
2020/12/17 03:05:01;;;;;;;18.88;4.28;;;;;;;;;;2064278;28;20427;-71
2020/12/17 03:06:19;;;;;;;16.45;4.68;;;;;;;;;;2062857;28;20023;-71
2020/12/17 03:07:38;;;;;;;15.82;4.38;;;;;;;;;;2064710;28;20455;-71
2020/12/17 03:08:57;;;;;;;15.07;5.63;;;;;;;;;;2062442;28;20019;-71
2020/12/17 03:10:16;;;;;;;10.82;4.43;;;;;;;;;;2062982;28;20078;-71
2020/12/17 03:11:35;;;;;;;12.32;4.45;;;;;;;;;;2064646;28;20030;-71
2020/12/17 03:12:54;;;;;;;8.73;4.03;;;;;;;;;;2065250;28;20019;-71
2020/12/17 03:14:13;;;;;;;16.17;4.65;;;;;;;;;;2065532;28;20023;-71
2020/12/17 03:15:32;;;;;;;17.25;3.95;;;;;;;;;;2066018;28;20050;-71
2020/12/17 03:16:51;;;;;;;11.82;4.43;;;;;;;;;;2064674;28;20034;-71
2020/12/17 03:18:10;;;;;;;15.13;4.25;;;;;;;;;;2065438;28;20115;-71
2020/12/17 03:19:29;;;;;;;17.67;4.32;;;;;;;;;;2064495;28;20430;-71
2020/12/17 03:20:47;;;;;;;13.50;4.20;;;;;;;;;;2064872;28;20422;-70
2020/12/17 03:22:06;;;;;;;12.85;4.40;;;;;;;;;;2065600;28;20399;-71
2020/12/17 03:23:25;;;;;;;21.77;4.50;;;;;;;;;;2064892;28;20095;-71
2020/12/17 03:24:44;;;;;;;14.50;4.57;;;;;;;;;;2064605;28;20026;-71
2020/12/17 03:26:03;;;;;;;13.75;4.07;;;;;;;;;;2060587;28;20062;-71
2020/12/17 03:27:21;;;;;;;15.00;4.75;;;;;;;;;;2065888;28;20023;-71
2020/12/17 03:28:40;;;;;;;15.20;4.18;;;;;;;;;;2061064;28;20034;-71
2020/12/17 03:30:00;;;;;;;10.43;4.22;;;;;;;;;;2065871;28;20018;-71
2020/12/17 03:31:19;;;;;;;19.52;4.53;;;;;;;;;;2063925;28;20027;-71
2020/12/17 03:32:37;;;;;;;13.60;4.18;;;;;;;;;;2058699;28;20113;-71
2020/12/17 03:33:56;;;;;;;16.35;4.78;;;;;;;;;;2061217;28;20109;-71
2020/12/17 03:35:15;;;;;;;17.05;4.45;;;;;;;;;;2063553;28;20026;-71
2020/12/17 03:36:34;;;;;;;15.70;4.13;;;;;;;;;;2063503;28;20034;-71
2020/12/17 03:37:57;;;;;;;17.75;4.15;;;;;;;;;;2064003;28;20022;-71
2020/12/17 03:39:17;;;;;;;12.73;4.38;;;;;;;;;;2063952;28;20026;-70
2020/12/17 03:40:35;;;;;;;14.93;4.43;;;;;;;;;;2063711;28;20375;-71
2020/12/17 03:41:54;;;;;;;13.98;4.40;;;;;;;;;;2064532;28;20050;-71
2020/12/17 03:43:13;;;;;;;14.95;4.25;;;;;;;;;;2062205;28;20026;-71
2020/12/17 03:44:32;;;;;;;12.98;4.20;;;;;;;;;;2065575;28;20109;-70
2020/12/17 03:45:51;;;;;;;16.05;5.32;;;;;;;;;;2063205;28;20030;-70
2020/12/17 03:47:09;;;;;;;15.25;4.60;;;;;;;;;;2061897;28;20038;-70
2020/12/17 03:48:28;;;;;;;14.35;4.40;;;;;;;;;;2065418;28;20101;-70
2020/12/17 03:49:47;;;;;;;12.20;4.10;;;;;;;;;;2064145;28;20018;-70
2020/12/17 03:51:06;;;;;;;15.13;4.47;;;;;;;;;;2063909;28;20027;-70
2020/12/17 03:52:25;;;;;;;14.35;4.85;;;;;;;;;;2061857;28;20022;-70
2020/12/17 03:53:44;;;;;;;9.68;3.80;;;;;;;;;;2060744;28;20031;-70
2020/12/17 03:55:03;;;;;;;7.85;3.58;;;;;;;;;;2064931;28;20398;-70
2020/12/17 03:56:22;;;;;;;14.10;4.55;;;;;;;;;;2065024;28;20022;-71
2020/12/17 03:57:41;;;;;;;18.17;4.70;;;;;;;;;;2065462;28;20121;-71
2020/12/17 03:59:00;;;;;;;14.77;4.20;;;;;;;;;;2065233;28;20390;-71
2020/12/17 04:00:19;;;;;;;19.65;4.13;;;;;;;;;;2066170;28;20604;-71
2020/12/17 04:01:38;;;;;;;12.93;5.85;;;;;;;;;;2060514;28;20034;-71
2020/12/17 04:02:57;;;;;;;14.63;4.53;;;;;;;;;;2063440;28;20113;-71
2020/12/17 04:04:16;;;;;;;12.05;4.30;;;;;;;;;;2057344;28;20030;-71
2020/12/17 04:05:35;;;;;;;21.42;5.40;;;;;;;;;;2064316;28;20034;-71
2020/12/17 04:06:54;;;;;;;14.38;3.95;;;;;;;;;;2062616;28;20363;-71
2020/12/17 04:08:13;;;;;;;14.93;4.32;;;;;;;;;;2060370;28;20030;-71
2020/12/17 04:09:31;;;;;;;20.48;4.15;;;;;;;;;;2065127;28;20414;-72
2020/12/17 04:10:50;;;;;;;12.07;4.53;;;;;;;;;;2064882;28;20499;-71
2020/12/17 04:12:09;;;;;;;12.35;4.60;;;;;;;;;;2059932;28;20027;-71
2020/12/17 04:13:28;;;;;;;17.15;4.40;;;;;;;;;;2062884;28;20030;-71
2020/12/17 04:14:47;;;;;;;12.30;4.30;;;;;;;;;;2059312;28;20031;-71
2020/12/17 04:16:06;;;;;;;12.75;4.80;;;;;;;;;;2062850;28;20058;-71
2020/12/17 04:17:25;;;;;;;18.00;4.63;;;;;;;;;;2065085;28;20474;-71
2020/12/17 04:18:44;;;;;;;17.27;4.70;;;;;;;;;;2062830;28;20478;-71
2020/12/17 04:20:03;;;;;;;12.05;4.25;;;;;;;;;;2062521;28;20502;-71
2020/12/17 04:21:22;;;;;;;8.73;4.53;;;;;;;;;;2064571;28;20385;-71
2020/12/17 04:22:41;;;;;;;14.98;4.93;;;;;;;;;;2058520;28;20034;-71
2020/12/17 04:24:00;;;;;;;13.38;4.63;;;;;;;;;;2062314;28;20035;-71
2020/12/17 04:25:19;;;;;;;12.77;4.32;;;;;;;;;;2064133;28;20027;-71
2020/12/17 04:26:38;;;;;;;11.90;4.28;;;;;;;;;;2064760;28;20514;-71
2020/12/17 04:27:56;;;;;;;9.23;5.00;;;;;;;;;;2064334;28;20026;-71
2020/12/17 04:29:16;;;;;;;11.70;4.78;;;;;;;;;;2065395;28;20421;-71
2020/12/17 04:30:34;;;;;;;12.40;5.18;;;;;;;;;;2062229;28;20065;-71
2020/12/17 04:31:53;;;;;;;13.88;5.35;;;;;;;;;;2062560;28;20050;-71
2020/12/17 04:33:12;;;;;;;13.02;5.00;;;;;;;;;;2062179;28;20430;-71
2020/12/17 04:34:31;;;;;;;12.35;4.20;;;;;;;;;;2064579;28;20105;-72
2020/12/17 04:35:49;;;;;;;13.20;5.32;;;;;;;;;;2063636;28;20019;-71
2020/12/17 04:37:08;;;;;;;7.45;4.22;;;;;;;;;;2061240;28;20160;-71
2020/12/17 04:38:27;;;;;;;16.40;5.38;;;;;;;;;;2065016;28;20383;-71
2020/12/17 04:39:46;;;;;;;11.07;4.45;;;;;;;;;;2061066;28;20079;-71
2020/12/17 04:41:05;;;;;;;14.95;5.00;;;;;;;;;;2063707;28;20022;-71
2020/12/17 04:42:25;;;;;;;19.15;5.03;;;;;;;;;;2061886;28;20038;-71
2020/12/17 04:43:44;;;;;;;14.00;5.82;;;;;;;;;;2063992;28;20482;-71
2020/12/17 04:45:03;;;;;;;18.33;4.75;;;;;;;;;;2062994;28;20033;-71
2020/12/17 04:46:23;;;;;;;16.25;5.18;;;;;;;;;;2063294;28;20030;-71
2020/12/17 04:47:44;;;;;;;8.07;5.05;;;;;;;;;;2060308;28;20030;-71
2020/12/17 04:49:04;;;;;;;15.85;5.15;;;;;;;;;;2064243;28;20031;-71
2020/12/17 04:50:25;;;;;;;13.13;4.97;;;;;;;;;;2063784;28;20022;-71
2020/12/17 04:51:46;;;;;;;14.73;5.25;;;;;;;;;;2061053;28;20030;-71
2020/12/17 04:53:08;;;;;;;16.52;5.60;;;;;;;;;;2062531;28;20026;-71
2020/12/17 04:54:27;;;;;;;15.20;4.40;;;;;;;;;;2061295;28;20023;-71
2020/12/17 04:55:48;;;;;;;12.52;4.97;;;;;;;;;;2061328;28;20018;-71
2020/12/17 04:57:08;;;;;;;8.07;5.00;;;;;;;;;;2059638;28;20058;-71
2020/12/17 04:58:27;;;;;;;13.80;4.93;;;;;;;;;;2064968;28;20069;-71
2020/12/17 04:59:50;;;;;;;21.10;6.40;;;;;;;;;;2061143;28;20034;-71
2020/12/17 05:01:09;;;;;;;14.45;4.72;;;;;;;;;;2054868;28;20360;-71
2020/12/17 05:02:30;;;;;;;13.85;4.93;;;;;;;;;;2061441;28;20026;-71
2020/12/17 05:03:49;;;;;;;11.48;4.68;;;;;;;;;;2063225;28;20034;-72
2020/12/17 05:05:08;;;;;;;11.82;4.35;;;;;;;;;;2060427;28;20034;-72
2020/12/17 05:06:28;;;;;;;15.35;4.50;;;;;;;;;;2064542;28;20097;-72
2020/12/17 05:07:47;;;;;;;12.70;4.97;;;;;;;;;;2063874;28;20030;-72
2020/12/17 05:09:06;;;;;;;14.02;5.15;;;;;;;;;;2062602;28;20494;-72
2020/12/17 05:10:25;;;;;;;13.90;5.82;;;;;;;;;;2061476;28;20031;-72
2020/12/17 05:11:46;;;;;;;13.50;4.72;;;;;;;;;;2064200;28;20030;-71
2020/12/17 05:13:04;;;;;;;16.05;5.15;;;;;;;;;;2061893;28;20045;-72
2020/12/17 05:14:23;;;;;;;9.40;5.15;;;;;;;;;;2065110;28;20014;-71
2020/12/17 05:15:43;;;;;;;16.90;5.97;;;;;;;;;;2062828;28;20026;-71
2020/12/17 05:17:03;;;;;;;11.75;5.32;;;;;;;;;;2063501;28;20101;-71
2020/12/17 05:18:22;;;;;;;15.43;5.05;;;;;;;;;;2051039;28;20411;-72
2020/12/17 05:19:42;;;;;;;14.75;4.72;;;;;;;;;;2062087;28;20117;-72
2020/12/17 05:21:02;;;;;;;15.15;4.80;;;;;;;;;;2060989;28;20487;-72
2020/12/17 05:22:21;;;;;;;9.57;4.70;;;;;;;;;;2064270;28;20409;-71
2020/12/17 05:23:40;;;;;;;13.90;5.25;;;;;;;;;;2062080;28;20030;-71
2020/12/17 05:24:59;;;;;;;13.15;4.43;;;;;;;;;;2063820;28;20030;-71
2020/12/17 05:26:23;;;;;;;19.33;4.88;;;;;;;;;;2060216;28;20050;-70
2020/12/17 05:27:42;;;;;;;8.82;4.60;;;;;;;;;;2065480;28;20490;-71
2020/12/17 05:29:01;;;;;;;11.38;4.28;;;;;;;;;;2063904;28;20482;-71
2020/12/17 05:30:29;;;;;;;9.27;4.28;;;;;;;;;;2062902;28;20030;-71
2020/12/17 05:31:48;;;;;;;10.20;4.43;;;;;;;;;;2061604;28;20034;-70
2020/12/17 05:33:07;;;;;;;8.23;4.18;;;;;;;;;;2061734;28;20034;-71
2020/12/17 05:34:26;;;;;;;8.10;3.60;;;;;;;;;;2062937;28;20023;-71
2020/12/17 05:35:46;;;;;;;11.98;4.20;;;;;;;;;;2061066;28;20027;-70
2020/12/17 05:37:05;;;;;;;12.23;3.92;;;;;;;;;;2061188;28;20455;-68
2020/12/17 05:38:26;;;;;;;10.48;4.38;;;;;;;;;;2055466;28;20125;-68
2020/12/17 05:39:45;;;;;;;11.50;4.07;;;;;;;;;;2061496;28;20042;-70
2020/12/17 05:41:06;;;;;;;13.43;4.65;;;;;;;;;;2061710;28;20031;-71
2020/12/17 05:42:26;;;;;;;10.02;3.97;;;;;;;;;;2062718;28;20030;-71
2020/12/17 05:43:45;;;;;;;11.25;4.30;;;;;;;;;;2063919;28;20030;-71
2020/12/17 05:45:21;;;;;;;8.88;4.47;;;;;;;;;;2060449;28;20038;-72
2020/12/17 05:46:42;;;;;;;13.55;4.00;;;;;;;;;;2060381;28;20031;-71
2020/12/17 05:48:12;;;;;;;11.77;5.10;;;;;;;;;;2061202;28;20385;-69
2020/12/17 05:49:31;;;;;;;10.95;4.47;;;;;;;;;;2062197;28;20030;-71
2020/12/17 05:50:50;;;;;;;10.73;4.03;;;;;;;;;;2061183;28;20023;-72
2020/12/17 05:52:15;;;;;;;7.82;3.25;;;;;;;;;;2062192;28;20374;-72
2020/12/17 05:53:39;;;;;;;8.25;3.70;;;;;;;;;;2069168;28;20039;-72
2020/12/17 05:55:01;;;;;;;10.82;3.72;;;;;;;;;;2062839;28;20387;-71
2020/12/17 05:56:25;;;;;;;6.05;3.25;;;;;;;;;;2062812;28;20030;-71
2020/12/17 05:57:51;;;;;;;5.95;3.28;;;;;;;;;;2061056;28;20030;-71
2020/12/17 05:59:09;;;;;;;11.68;4.22;;;;;;;;;;2059078;28;20043;-71
2020/12/17 06:00:28;;;;;;;13.40;4.05;;;;;;;;;;2062016;28;20031;-71
2020/12/17 06:01:48;;;;;;;12.25;3.92;;;;;;;;;;2062387;28;20474;-72
2020/12/17 06:03:10;;;;;;;11.68;3.65;;;;;;;;;;2062819;28;20038;-71
2020/12/17 06:04:29;;;;;;;10.55;3.95;;;;;;;;;;2056748;28;20496;-71
2020/12/17 06:05:49;;;;;;;12.98;4.15;;;;;;;;;;2063779;28;20375;-71
2020/12/17 06:07:12;;;;;;;10.35;3.60;;;;;;;;;;2062866;28;20026;-71
2020/12/17 06:08:38;;;;;;;9.25;4.60;;;;;;;;;;2063734;28;20038;-71
2020/12/17 06:10:02;;;;;;;7.50;3.80;;;;;;;;;;2063063;28;20026;-71
2020/12/17 06:11:22;;;;;;;10.32;3.63;;;;;;;;;;2063825;28;20458;-66
2020/12/17 06:12:43;;;;;;;8.52;4.50;;;;;;;;;;2061619;28;20062;-66
2020/12/17 06:14:02;;;;;;;12.07;4.15;;;;;;;;;;2061184;28;20038;-66
2020/12/17 06:15:22;;;;;;;15.85;5.15;;;;;;;;;;2062449;28;20026;-68
2020/12/17 06:16:42;;;;;;;10.68;4.78;;;;;;;;;;2061305;28;20026;-69
2020/12/17 06:18:02;;;;;;;11.57;3.95;;;;;;;;;;2062445;28;20026;-66
2020/12/17 06:19:22;;;;;;;10.27;4.15;;;;;;;;;;2064792;28;20023;-66
2020/12/17 06:20:42;;;;;;;9.27;4.70;;;;;;;;;;2065024;28;20034;-68
2020/12/17 06:22:08;;;;;;;14.18;4.47;;;;;;;;;;2064221;28;20101;-68
2020/12/17 06:23:26;;;;;;;21.20;5.13;;;;;;;;;;2062229;28;20018;-67
2020/12/17 06:24:45;;;;;;;18.95;6.35;;;;;;;;;;2064297;28;20443;-66
2020/12/17 06:26:08;;;;;;;14.90;5.13;;;;;;;;;;2064618;28;20499;-66
2020/12/17 06:27:31;;;;;;;15.85;4.43;;;;;;;;;;2059827;28;20038;-67
2020/12/17 06:28:50;;;;;;;;;;;;;;;;;;2063456;28;20413;-67
2020/12/17 06:30:09;;;;;;;11.45;3.97;;;;;;;;;;2061327;28;19906;-66
2020/12/17 06:31:32;;;;;;;9.18;4.07;;;;;;;;;;2064432;28;20027;-66
2020/12/17 06:32:51;;;;;;;;;;;;;;;;;;2055679;28;20038;-68
2020/12/17 06:34:11;;;;;;;15.32;4.82;;;;;;;;;;2061093;28;20354;-68
2020/12/17 06:35:39;;;;;;;9.10;4.25;;;;;;;;;;2061059;28;20031;-66
2020/12/17 06:36:59;;;;;;;13.77;4.32;;;;;;;;;;2058849;28;20034;-68
2020/12/17 06:38:23;;;;;;;6.72;3.80;;;;;;;;;;2063253;28;20035;-69
2020/12/17 06:39:46;;;;;;;15.68;4.22;;;;;;;;;;2063586;28;20101;-69
2020/12/17 06:41:14;;;;;;;15.02;4.30;;;;;;;;;;2061906;28;20458;-69
2020/12/17 06:42:33;;;;;;;14.00;4.35;;;;;;;;;;2059211;28;20058;-70
2020/12/17 06:43:52;;;;;;;11.85;4.07;;;;;;;;;;2064962;28;20554;-69
2020/12/17 06:45:30;;;;;;;9.00;4.47;;;;;;;;;;2065110;28;20038;-69
2020/12/17 06:46:56;;;;;;;17.05;4.80;;;;;;;;;;2068959;28;20038;-69
2020/12/17 06:48:30;;;;;;;12.95;4.50;;;;;;;;;;2061497;28;20478;-70
2020/12/17 06:49:49;;;;;;;18.48;4.40;;;;;;;;;;2062235;28;20023;-69
2020/12/17 06:51:27;;;;;;;11.13;4.13;;;;;;;;;;2062266;28;20058;-69
2020/12/17 06:53:09;;;;;;;13.73;4.68;;;;;;;;;;2065722;28;20022;-69
2020/12/17 06:54:27;;;;;;;11.98;4.28;;;;;;;;;;2058391;28;20066;-68
2020/12/17 06:55:48;;;;;;;11.98;4.65;;;;;;;;;;2061018;28;20023;-68
2020/12/17 06:57:09;;;;;;;15.65;5.40;;;;;;;;;;2062865;28;20030;-68
2020/12/17 06:58:28;;;;;;;13.55;5.30;;;;;;;;;;2060598;28;20062;-69
2020/12/17 07:00:07;;;;;;;13.10;5.05;;;;;;;;;;2063831;28;20031;-69
2020/12/17 07:01:29;;;;;;;19.50;5.07;;;;;;;;;;2062387;28;20105;-68
2020/12/17 07:02:48;;;;;;;10.95;4.80;;;;;;;;;;2064440;28;20125;-69
2020/12/17 07:04:07;;;;;;;14.60;4.93;;;;;;;;;;2060843;28;20027;-69
2020/12/17 07:05:30;;;;;;;10.63;4.97;;;;;;;;;;2060171;28;20105;-69
2020/12/17 07:07:07;;;;;;;17.27;5.25;;;;;;;;;;2065961;28;20069;-69
2020/12/17 07:08:35;;;;;;;14.20;5.28;;;;;;;;;;2065222;28;21327;-69
2020/12/17 07:09:55;;;;;;;11.63;5.07;;;;;;;;;;2059126;28;20039;-68
2020/12/17 07:11:33;;;;;;;15.05;3.90;;;;;;;;;;2062055;28;20030;-68
2020/12/17 07:12:52;;;;;;;21.27;4.82;;;;;;;;;;2065144;28;20022;-69
2020/12/17 07:14:18;;;;;;;12.65;4.43;;;;;;;;;;2065761;28;20018;-69
2020/12/17 07:15:37;;;;;;;17.20;5.25;;;;;;;;;;2063761;28;20026;-69
2020/12/17 07:17:01;;;;;;;12.07;5.32;;;;;;;;;;2061442;28;20061;-70
2020/12/17 07:18:21;;;;;;;17.20;4.85;;;;;;;;;;2063535;28;20483;-69
2020/12/17 07:19:40;;;;;;;12.52;5.13;;;;;;;;;;2061218;28;20391;-70
2020/12/17 07:21:06;;;;;;;16.25;5.15;;;;;;;;;;2060927;28;20027;-70
2020/12/17 07:22:25;;;;;;;17.05;4.97;;;;;;;;;;2064355;28;20034;-71
2020/12/17 07:23:44;;;;;;;17.55;5.10;;;;;;;;;;2061503;28;20502;-70
2020/12/17 07:25:03;;;;;;;20.70;5.30;;;;;;;;;;2062953;28;20066;-69
2020/12/17 07:26:21;;;;;;;17.00;5.22;;;;;;;;;;2061784;28;20046;-69
2020/12/17 07:27:49;;;;;;;15.45;5.35;;;;;;;;;;2063103;28;20038;-69
2020/12/17 07:29:11;;;;;;;17.17;4.90;;;;;;;;;;2060932;28;20022;-70
2020/12/17 07:30:30;;;;;;;11.90;5.20;;;;;;;;;;2060476;28;20034;-69
2020/12/17 07:31:49;;;;;;;24.73;5.75;;;;;;;;;;2057722;28;20236;-69
2020/12/17 07:33:08;;;;;;;21.02;5.75;;;;;;;;;;2056821;28;20402;-70
2020/12/17 07:34:29;;;;;;;21.77;6.75;;;;;;;;;;2063127;28;20030;-69
2020/12/17 07:35:48;;;;;;;22.80;5.63;;;;;;;;;;2064198;28;20022;-69
2020/12/17 07:37:07;;;;;;;18.88;5.60;;;;;;;;;;2059919;28;20038;-69
2020/12/17 07:38:26;;;;;;;21.42;6.25;;;;;;;;;;2058782;28;20030;-70
2020/12/17 07:39:45;;;;;;;24.88;5.72;;;;;;;;;;2059826;28;20030;-69
2020/12/17 07:41:03;;;;;;;23.60;6.20;;;;;;;;;;2064098;28;20034;-69
2020/12/17 07:42:22;;;;;;;27.70;7.88;;;;;;;;;;2059711;28;20110;-70
2020/12/17 07:43:42;;;;;;;15.52;5.82;;;;;;;;;;2058706;28;20048;-69
2020/12/17 07:45:01;;;;;;;17.95;5.40;;;;;;;;;;2062221;28;20031;-70
2020/12/17 07:46:36;;;;;;;20.17;6.72;;;;;;;;;;2059643;28;20062;-69
2020/12/17 07:47:55;;;;;;;26.15;7.13;;;;;;;;;;2063290;28;20033;-69
2020/12/17 07:49:26;;;;;;;18.17;6.20;;;;;;;;;;2064992;28;20019;-68
2020/12/17 07:50:44;;;;;;;16.75;6.03;;;;;;;;;;2064123;28;20026;-68
2020/12/17 07:52:04;;;;;;;20.70;6.78;;;;;;;;;;2063209;28;20026;-69
2020/12/17 07:53:23;;;;;;;21.35;6.45;;;;;;;;;;2063118;28;20030;-68
2020/12/17 07:54:44;;;;;;;25.35;7.45;;;;;;;;;;2062987;28;20026;-69
2020/12/17 07:56:04;;;;;;;29.92;7.80;;;;;;;;;;2065159;28;20027;-68